Nearby METAR Reports

 

KISP - Islip, New York, USA
Distance from station: SW 4mi, 6km
Updated: Sat, 01/23/2021 8:56 am EST
Partly cloudy
Partly cloudy
 Wind from NW
Wind: NW 21 mph , 33 km/h, Gust: 31 mph , 50 km/h
Temperature: 28°F , -2°C
Wind Chill: 14°F , -10°C
Dew Point: 10°F , -12°C
Humidity: 47%
Barometer: 29.99 inHg , 1015.6 hPa
Clouds: Partly cloudy
Visibility: 10 miles , 16 km
Cloud details: Few Clouds 4600 ft
Partly cloudy 7000 ft
2021/01/23 13:56 KISP 231356Z 32018G27KT 10SM FEW046 SCT070 M02/M12 A2999 RMK AO2 PK WND 29028/1331 SLP154 T10171117
KHWV - Shirley, New York, USA
Distance from station: E 10mi, 16km
Updated: Sat, 01/23/2021 8:56 am EST
Few Clouds
Few Clouds
 Wind from NW
Wind: NW 20 mph , 31 km/h, Gust: 26 mph , 43 km/h
Temperature: 30°F , -1°C
Wind Chill: 17°F , -8°C
Dew Point: 9°F , -13°C
Humidity: 40%
Barometer: 29.98 inHg , 1015.2 hPa
Clouds: Few Clouds
Visibility: 10 miles , 16 km
Cloud details: Few Clouds 4800 ft
2021/01/23 13:56 KHWV 231356Z AUTO 31017G23KT 10SM FEW048 M01/M13 A2998 RMK AO2 SLP154 T10111128
 
KFRG - Farmingdale, New York, USA
Distance from station: WSW 20mi, 33km
Updated: Sat, 01/23/2021 8:53 am EST
Clear
Clear
 Wind from NW
Wind: NW 16 mph , 26 km/h, Gust: 29 mph , 46 km/h
Temperature: 28°F , -2°C
Wind Chill: 16°F , -9°C
Dew Point: 9°F , -13°C
Humidity: 43%
Barometer: 30.01 inHg , 1016.3 hPa
Clouds: Clear
Visibility: 10 miles , 16 km
2021/01/23 13:53 KFRG 231353Z 32014G25KT 10SM CLR M02/M13 A3001 RMK AO2 PK WND 30027/1322 SLP163 T10171133
KBDR - Bridgeport, Connecticut, USA
Distance from station: N 23mi, 37km
Updated: Sat, 01/23/2021 8:52 am EST
Clear
Clear
 Wind from NW
Wind: NW 15 mph , 24 km/h, Gust: 24 mph , 39 km/h
Temperature: 28°F , -2°C
Wind Chill: 16°F , -9°C
Dew Point: 9°F , -13°C
Humidity: 43%
Barometer: 29.98 inHg , 1015.2 hPa
Clouds: Clear
Visibility: 10 miles , 16 km
2021/01/23 13:52 KBDR 231352Z 31013G21KT 10SM CLR M02/M13 A2998
 
KFOK - Westhampton Beac, New York, USA
Distance from station: E 23mi, 37km
Updated: Sat, 01/23/2021 8:53 am EST
Few Clouds
Few Clouds
 Wind from NW
Wind: NW 21 mph , 33 km/h, Gust: 31 mph , 50 km/h
Temperature: 28°F , -2°C
Wind Chill: 14°F , -10°C
Dew Point: 9°F , -13°C
Humidity: 43%
Barometer: 29.97 inHg , 1014.9 hPa
Clouds: Few Clouds
Visibility: 10 miles , 16 km
Cloud details: Few Clouds 4400 ft
2021/01/23 13:53 KFOK 231353Z 31018G27KT 10SM FEW044 M02/M13 A2997 RMK AO2 PK WND 30031/1320 SLP150 T10171133
KHVN - New Haven/Tweed, Connecticut, USA
Distance from station: NNE 31mi, 50km
Updated: Sat, 01/23/2021 8:53 am EST
Partly cloudy
Partly cloudy
 Wind from NW
Wind: NW 17 mph , 28 km/h, Gust: 25 mph , 41 km/h
Temperature: 30°F , -1°C
Wind Chill: 18°F , -8°C
Dew Point: 10°F , -12°C
Humidity: 43%
Barometer: 29.97 inHg , 1014.9 hPa
Clouds: Partly cloudy
Visibility: 10 miles , 16 km
Cloud details: Partly cloudy 4000 ft
2021/01/23 13:53 KHVN 231353Z 32015G22KT 10SM SCT040 M01/M12 A2997 RMK AO2 SLP146 T10111117
 
KHPN - White Plains, New York, USA
Distance from station: WNW 37mi, 60km
Updated: Sat, 01/23/2021 8:56 am EST
Partly cloudy
Partly cloudy
 Wind from NW
Wind: NW 20 mph , 31 km/h, Gust: 31 mph , 50 km/h
Temperature: 27°F , -3°C
Wind Chill: 13°F , -11°C
Dew Point: 9°F , -13°C
Humidity: 46%
Barometer: 29.98 inHg , 1015.2 hPa
Clouds: Partly cloudy
Visibility: 10 miles , 16 km
Cloud details: Partly cloudy 4100 ft
2021/01/23 13:56 KHPN 231356Z 31017G27KT 10SM SCT041 M03/M13 A2998 RMK AO2 PK WND 31028/1306 SLP162 T10331128 $
KJFK - Nyc/Jfk Arpt, New York, USA
Distance from station: WSW 40mi, 64km
Updated: Sat, 01/23/2021 8:51 am EST
Partly cloudy
Partly cloudy
 Wind from NW
Wind: NW 28 mph , 44 km/h, Gust: 32 mph , 52 km/h
Temperature: 30°F , -1°C
Wind Chill: 15°F , -9°C
Dew Point: 7°F , -14°C
Humidity: 37%
Barometer: 30.04 inHg , 1017.3 hPa
Clouds: Partly cloudy
Visibility: 10 miles , 16 km
Cloud details: Partly cloudy 5500 ft
2021/01/23 13:51 KJFK 231351Z 32024G28KT 10SM SCT055 M01/M14 A3004 RMK AO2 PK WND 32029/1337 SLP171 T10111144
 
KDXR - Danbury, Connecticut, USA
Distance from station: NNW 42mi, 68km
Updated: Sat, 01/23/2021 8:53 am EST
Mostly cloudy
Mostly cloudy
 Wind from WNW
Wind: WNW 10 mph , 17 km/h, Gust: 25 mph , 41 km/h
Temperature: 27°F , -3°C
Wind Chill: 18°F , -8°C
Dew Point: 9°F , -13°C
Humidity: 46%
Barometer: 29.98 inHg , 1015.2 hPa
Clouds: Mostly cloudy
Visibility: 10 miles , 16 km
Cloud details: Mostly cloudy 9000 ft
2021/01/23 13:53 KDXR 231353Z 29009G22KT 270V330 10SM BKN090 M03/M13 A2998 RMK AO2 SLP157 T10331128
KHTO - East Hampton, New York, USA
Distance from station: E 43mi, 69km
Updated: Sat, 01/23/2021 9:15 am EST
Mostly cloudy
Mostly cloudy
 Wind from NW
Wind: NW 7 mph , 11 km/h, Gust: 18 mph , 30 km/h
Temperature: 30°F , -1°C
Wind Chill: 23°F , -5°C
Dew Point: 14°F , -10°C
Humidity: 51%
Barometer: 29.95 inHg , 1014.2 hPa
Clouds: Mostly cloudy
Visibility: 10 miles , 16 km
Cloud details: Partly cloudy 3700 ft
Mostly cloudy 8000 ft
2021/01/23 14:15 KHTO 231415Z AUTO 32006G16KT 10SM SCT037 BKN080 M01/M10 A2995 RMK AO2 T10151101
 
KOXC - Oxford/Waterbury, Connecticut, USA
Distance from station: N 43mi, 70km
Updated: Sat, 01/23/2021 8:51 am EST
Mostly cloudy
Mostly cloudy
 Wind from NW
Wind: NW 9 mph , 15 km/h, Gust: 18 mph , 30 km/h
Temperature: 25°F , -4°C
Wind Chill: 16°F , -9°C
Dew Point: 16°F , -9°C
Humidity: 69%
Barometer: 29.94 inHg , 1013.9 hPa
Clouds: Mostly cloudy
Visibility: 10 miles , 16 km
Cloud details: Partly cloudy 3600 ft
Mostly cloudy 8000 ft
2021/01/23 13:51 KOXC 231351Z 32008G16KT 10SM SCT036 BKN080 M04/M09 A2994 RMK AO2 SLP160 T10441094
KLGA - Nyc/La Guardia, New York, USA
Distance from station: W 44mi, 70km
Updated: Sat, 01/23/2021 8:51 am EST
Partly cloudy
Partly cloudy
 Wind from NNW
Wind: NNW 15 mph , 24 km/h, Gust: 25 mph , 41 km/h
Temperature: 30°F , -1°C
Wind Chill: 19°F , -7°C
Dew Point: 9°F , -13°C
Humidity: 40%
Barometer: 30.03 inHg , 1016.9 hPa
Clouds: Partly cloudy
Visibility: 10 miles , 16 km
Cloud details: Few Clouds 5000 ft
Partly cloudy 7000 ft
2021/01/23 13:51 KLGA 231351Z 33013G22KT 10SM FEW050 SCT070 M01/M13 A3003 RMK AO2 PK WND 33028/1324 SLP169 T10061128
 
KSNC - Chester, Connecticut, USA
Distance from station: NE 47mi, 76km
Updated: Sat, 01/23/2021 8:35 am EST
Few Clouds
Few Clouds
 Wind from NW
Wind: NW 10 mph , 17 km/h, Gust: 20 mph , 31 km/h
Temperature: 28°F , -2°C
Wind Chill: 19°F , -7°C
Dew Point: 9°F , -13°C
Humidity: 43%
Barometer: 29.92 inHg , 1013.2 hPa
Clouds: Few Clouds
Visibility: 10 miles , 16 km
Cloud details: Few Clouds 3600 ft
2021/01/23 13:35 KSNC 231335Z AUTO 32009G17KT 10SM FEW036 M02/M13 A2992 RMK AO2
KMMK - Meriden, Connecticut, USA
Distance from station: NNE 48mi, 77km
Updated: Sat, 01/23/2021 8:53 am EST
Partly cloudy
Partly cloudy
 Wind from WNW
Wind: WNW 13 mph , 20 km/h, Gust: 24 mph , 39 km/h
Temperature: 27°F , -3°C
Wind Chill: 16°F , -9°C
Dew Point: 9°F , -13°C
Humidity: 46%
Barometer: 29.97 inHg , 1014.9 hPa
Clouds: Partly cloudy
Visibility: 10 miles , 16 km
Cloud details: Partly cloudy 9000 ft
2021/01/23 13:53 KMMK 231353Z AUTO 30011G21KT 10SM SCT090 M03/M13 A2997 RMK AO2 SLP149 T10281128
 
KNYC - Nyc/Central Park, New York, USA
Distance from station: W 48mi, 77km
Updated: Sat, 01/23/2021 8:51 am EST
Clear
Clear
 Wind from WNW
Wind: WNW 10 mph , 17 km/h, Gust: 22 mph , 35 km/h
Temperature: 28°F , -2°C
Wind Chill: 19°F , -7°C
Dew Point: 7°F , -14°C
Humidity: 40%
Barometer: 30.05 inHg , 1017.6 hPa
Clouds: Clear
Visibility: 10 miles , 16 km
2021/01/23 13:51 KNYC 231351Z AUTO 29009G19KT 250V330 10SM CLR M02/M14 A3005 RMK AO2 SLP167 T10221144